Time;durP1;ratioP1;P1;durP2;ratioP2;P2;SDS_P1;SDS_P2;PMS_P1;PMS_P2;Temp;Humidity;BMP_temperature;BMP_pressure;BME280_temperature;BME280_humidity;BME280_pressure;Samples;Min_cycle;Max_cycle;Signal;HPM_P1;HPM_P2
2023/06/28 00:02:10;;;;;;;1.55;1.45;;;;;;;;;;7301711;19;140394;-79
2023/06/28 00:04:37;;;;;;;1.60;1.50;;;;;;;;;;7300700;19;141481;-79
2023/06/28 00:07:07;;;;;;;1.70;1.60;;;;;;;;;;7301140;19;142594;-81
2023/06/28 00:09:34;;;;;;;2.70;1.55;;;;;;;;;;7301040;19;140689;-80
2023/06/28 00:12:03;;;;;;;2.33;1.70;;;;;;;;;;7300152;19;141022;-80
2023/06/28 00:14:30;;;;;;;2.10;1.90;;;;;;;;;;7300101;19;141551;-80
2023/06/28 00:16:57;;;;;;;1.60;1.50;;;;;;;;;;7300292;19;141784;-80
2023/06/28 00:19:26;;;;;;;2.28;1.70;;;;;;;;;;7304727;19;140772;-80
2023/06/28 00:21:55;;;;;;;2.42;1.60;;;;;;;;;;7308667;19;140857;-80
2023/06/28 00:24:22;;;;;;;1.80;1.52;;;;;;;;;;7308323;19;141454;-80
2023/06/28 00:26:49;;;;;;;2.65;1.90;;;;;;;;;;7306671;19;142292;-79
2023/06/28 00:29:17;;;;;;;2.30;1.67;;;;;;;;;;7307684;19;141119;-79
2023/06/28 00:31:44;;;;;;;2.90;1.80;;;;;;;;;;7307700;19;140594;-80
2023/06/28 00:34:13;;;;;;;2.35;1.70;;;;;;;;;;7307804;19;141703;-79
2023/06/28 00:36:41;;;;;;;1.88;1.60;;;;;;;;;;7306596;19;141977;-79
2023/06/28 00:39:08;;;;;;;2.35;1.80;;;;;;;;;;7307638;19;140183;-80
2023/06/28 00:41:36;;;;;;;2.10;1.80;;;;;;;;;;7306422;19;140805;-80
2023/06/28 00:44:04;;;;;;;1.70;1.55;;;;;;;;;;7307368;19;141733;-79
2023/06/28 00:46:37;;;;;;;2.90;1.73;;;;;;;;;;7307485;19;142085;-79
2023/06/28 00:49:04;;;;;;;2.45;1.65;;;;;;;;;;7306761;19;140778;-79
2023/06/28 00:51:32;;;;;;;2.42;1.67;;;;;;;;;;7307571;19;140500;-79
2023/06/28 00:54:00;;;;;;;1.70;1.40;;;;;;;;;;7305302;19;140957;-79
2023/06/28 00:56:29;;;;;;;3.03;1.80;;;;;;;;;;7305829;19;142076;-79
2023/06/28 00:58:56;;;;;;;2.30;1.75;;;;;;;;;;7306989;19;140629;-79
2023/06/28 01:01:24;;;;;;;2.35;1.70;;;;;;;;;;7306970;19;140549;-79
2023/06/28 01:03:53;;;;;;;1.75;1.55;;;;;;;;;;7306500;19;142645;-80
2023/06/28 01:06:21;;;;;;;2.97;1.98;;;;;;;;;;7306465;19;141704;-79
2023/06/28 01:08:49;;;;;;;3.08;1.85;;;;;;;;;;7307239;19;140635;-80
2023/06/28 01:11:18;;;;;;;2.38;1.77;;;;;;;;;;7306300;19;140420;-80
2023/06/28 01:13:46;;;;;;;3.47;1.55;;;;;;;;;;7305897;19;140529;-80
2023/06/28 01:16:13;;;;;;;1.63;1.52;;;;;;;;;;7306069;19;141970;-79
2023/06/28 01:18:40;;;;;;;2.17;1.40;;;;;;;;;;7304972;19;140773;-79
2023/06/28 01:21:10;;;;;;;2.80;1.60;;;;;;;;;;7306592;19;140573;-79
2023/06/28 01:23:38;;;;;;;3.47;1.83;;;;;;;;;;7305898;19;142671;-79
2023/06/28 01:26:08;;;;;;;2.13;1.60;;;;;;;;;;7304435;19;142046;-80
2023/06/28 01:28:36;;;;;;;2.42;1.80;;;;;;;;;;7306271;19;140530;-79
2023/06/28 01:31:04;;;;;;;2.10;1.65;;;;;;;;;;7305519;19;140670;-79
2023/06/28 01:33:32;;;;;;;1.77;1.63;;;;;;;;;;7305706;19;141378;-80
2023/06/28 01:35:59;;;;;;;2.22;1.70;;;;;;;;;;7306199;19;142232;-80
2023/06/28 01:38:28;;;;;;;1.88;1.70;;;;;;;;;;7305351;19;140808;-80
2023/06/28 01:40:57;;;;;;;1.80;1.65;;;;;;;;;;7305320;19;140545;-82
2023/06/28 01:43:24;;;;;;;4.25;1.73;;;;;;;;;;7305927;19;142641;-80
2023/06/28 01:45:52;;;;;;;2.42;1.80;;;;;;;;;;7304639;19;141998;-78
2023/06/28 01:48:20;;;;;;;2.50;1.70;;;;;;;;;;7305554;19;140650;-80
2023/06/28 01:50:47;;;;;;;2.88;1.90;;;;;;;;;;7305752;19;140505;-79
2023/06/28 01:53:14;;;;;;;2.15;1.77;;;;;;;;;;7304602;19;141252;-79
2023/06/28 01:55:41;;;;;;;1.70;1.58;;;;;;;;;;7304843;19;141931;-79
2023/06/28 01:58:09;;;;;;;1.98;1.73;;;;;;;;;;7305066;19;140650;-79
2023/06/28 02:00:36;;;;;;;1.50;1.40;;;;;;;;;;7305362;19;140661;-80
2023/06/28 02:03:04;;;;;;;2.85;1.83;;;;;;;;;;7304738;19;140501;-80
2023/06/28 02:05:31;;;;;;;2.30;1.40;;;;;;;;;;7304735;19;141897;-79
2023/06/28 02:07:59;;;;;;;3.17;1.70;;;;;;;;;;7303825;19;140856;-80
2023/06/28 02:10:26;;;;;;;2.10;1.80;;;;;;;;;;7305104;19;140949;-79
2023/06/28 02:12:53;;;;;;;2.97;1.70;;;;;;;;;;7303708;19;141444;-80
2023/06/28 02:15:21;;;;;;;2.33;1.55;;;;;;;;;;7303675;19;142131;-79
2023/06/28 02:17:49;;;;;;;2.00;1.70;;;;;;;;;;7303752;19;140708;-80
2023/06/28 02:20:16;;;;;;;2.20;2.00;;;;;;;;;;7304695;19;140638;-80
2023/06/28 02:22:43;;;;;;;2.53;1.73;;;;;;;;;;7304644;19;142010;-80
2023/06/28 02:25:11;;;;;;;2.30;2.10;;;;;;;;;;7303931;19;141099;-78
2023/06/28 02:27:39;;;;;;;2.38;1.77;;;;;;;;;;7303705;19;140598;-78
2023/06/28 02:30:06;;;;;;;1.60;1.50;;;;;;;;;;7304541;19;140660;-78
2023/06/28 02:32:34;;;;;;;1.83;1.60;;;;;;;;;;7301449;19;141512;-78
2023/06/28 02:35:01;;;;;;;2.03;1.70;;;;;;;;;;7302939;19;141904;-78
2023/06/28 02:37:29;;;;;;;2.95;1.60;;;;;;;;;;7303274;19;140683;-78
2023/06/28 02:39:56;;;;;;;1.90;1.50;;;;;;;;;;7303730;19;140574;-78
2023/06/28 02:42:24;;;;;;;1.95;1.60;;;;;;;;;;7300822;19;141776;-79
2023/06/28 02:44:51;;;;;;;2.05;1.75;;;;;;;;;;7303210;19;142070;-79
2023/06/28 02:47:18;;;;;;;1.67;1.40;;;;;;;;;;7304024;19;140542;-79
2023/06/28 02:49:46;;;;;;;1.60;1.50;;;;;;;;;;7301792;19;140475;-78
2023/06/28 02:52:13;;;;;;;2.60;1.50;;;;;;;;;;7303265;19;141345;-78
2023/06/28 02:54:41;;;;;;;2.88;1.77;;;;;;;;;;7302586;19;142481;-81
2023/06/28 02:57:10;;;;;;;2.33;1.48;;;;;;;;;;7302020;19;140840;-78
2023/06/28 02:59:37;;;;;;;1.60;1.50;;;;;;;;;;7304292;19;140843;-78
2023/06/28 03:02:05;;;;;;;2.22;1.63;;;;;;;;;;7301556;19;141767;-78
2023/06/28 03:04:35;;;;;;;2.47;1.70;;;;;;;;;;7302597;19;142332;-78
2023/06/28 03:07:02;;;;;;;2.10;1.55;;;;;;;;;;7303256;19;140832;-79
2023/06/28 03:09:29;;;;;;;1.80;1.50;;;;;;;;;;7302858;19;140573;-80
2023/06/28 03:11:57;;;;;;;2.33;1.52;;;;;;;;;;7301570;19;141014;-80
2023/06/28 03:14:24;;;;;;;2.33;1.40;;;;;;;;;;7302403;19;141868;-80
2023/06/28 03:16:51;;;;;;;2.42;1.60;;;;;;;;;;7302646;19;140705;-80
2023/06/28 03:19:18;;;;;;;2.65;1.55;;;;;;;;;;7301642;19;140429;-80
2023/06/28 03:21:46;;;;;;;2.40;1.40;;;;;;;;;;7302106;19;141291;-79
2023/06/28 03:24:13;;;;;;;4.15;1.60;;;;;;;;;;7302425;19;141993;-80
2023/06/28 03:26:40;;;;;;;3.08;1.67;;;;;;;;;;7302264;19;140797;-79
2023/06/28 03:29:07;;;;;;;2.45;1.40;;;;;;;;;;7302373;19;140617;-79
2023/06/28 03:31:34;;;;;;;1.50;1.40;;;;;;;;;;7300196;19;141282;-80
2023/06/28 03:34:01;;;;;;;1.58;1.33;;;;;;;;;;7302659;19;143061;-79
2023/06/28 03:36:31;;;;;;;1.75;1.30;;;;;;;;;;7302548;19;140785;-78
2023/06/28 03:38:58;;;;;;;2.95;1.40;;;;;;;;;;7302656;19;140788;-77
2023/06/28 03:41:27;;;;;;;1.77;1.30;;;;;;;;;;7301297;19;141291;-78
2023/06/28 03:43:54;;;;;;;2.05;1.45;;;;;;;;;;7301507;19;141501;-77
2023/06/28 03:46:21;;;;;;;1.58;1.30;;;;;;;;;;7302288;19;140461;-79
2023/06/28 03:48:49;;;;;;;2.28;1.30;;;;;;;;;;7300094;19;140751;-78
2023/06/28 03:51:16;;;;;;;2.03;1.25;;;;;;;;;;7299856;19;142415;-78
2023/06/28 03:53:43;;;;;;;3.47;1.42;;;;;;;;;;7303783;19;141174;-79
2023/06/28 03:56:10;;;;;;;1.60;1.17;;;;;;;;;;7309133;19;140752;-79
2023/06/28 03:58:37;;;;;;;1.98;1.27;;;;;;;;;;7307852;19;140582;-79
2023/06/28 04:01:05;;;;;;;1.90;1.55;;;;;;;;;;7308178;19;140749;-78
2023/06/28 04:03:32;;;;;;;2.25;1.50;;;;;;;;;;7307401;19;142491;-78
2023/06/28 04:05:59;;;;;;;3.35;1.58;;;;;;;;;;7308246;19;140849;-79
2023/06/28 04:08:27;;;;;;;2.97;1.70;;;;;;;;;;7308395;19;140769;-78
2023/06/28 04:10:55;;;;;;;2.13;1.60;;;;;;;;;;7307831;19;141890;-79
2023/06/28 04:13:25;;;;;;;1.75;1.48;;;;;;;;;;7305280;19;142102;-78
2023/06/28 04:15:53;;;;;;;2.03;1.20;;;;;;;;;;7308775;19;140477;-79
2023/06/28 04:18:21;;;;;;;1.98;1.50;;;;;;;;;;7307573;19;140604;-80
2023/06/28 04:20:48;;;;;;;2.03;1.60;;;;;;;;;;7307808;19;141992;-80
2023/06/28 04:23:15;;;;;;;1.58;1.30;;;;;;;;;;7307358;19;142514;-80
2023/06/28 04:25:42;;;;;;;1.73;1.20;;;;;;;;;;7308329;19;140549;-79
2023/06/28 04:28:09;;;;;;;1.70;1.25;;;;;;;;;;7307086;19;140253;-82
2023/06/28 04:30:37;;;;;;;5.32;1.30;;;;;;;;;;7307652;19;140601;-83
2023/06/28 04:33:08;;;;;;;4.18;1.35;;;;;;;;;;7306236;19;143224;-81
2023/06/28 04:35:35;;;;;;;6.63;1.60;;;;;;;;;;7306764;19;140600;-82
2023/06/28 04:38:03;;;;;;;2.47;1.30;;;;;;;;;;7307945;19;140589;-83
2023/06/28 04:40:32;;;;;;;3.00;1.35;;;;;;;;;;7307772;19;142007;-83
2023/06/28 04:43:00;;;;;;;1.95;1.33;;;;;;;;;;7307120;19;142079;-84
2023/06/28 04:45:36;;;;;;;1.77;1.20;;;;;;;;;;7307157;19;140491;-82
2023/06/28 04:48:05;;;;;;;1.45;1.35;;;;;;;;;;7309060;19;140543;-84
2023/06/28 04:50:37;;;;;;;1.83;1.17;;;;;;;;;;7307686;19;141931;-82
2023/06/28 04:53:05;;;;;;;2.83;1.40;;;;;;;;;;7307547;19;141768;-80
2023/06/28 04:55:34;;;;;;;2.38;1.40;;;;;;;;;;7306117;19;140793;-80
2023/06/28 04:58:04;;;;;;;1.80;1.40;;;;;;;;;;7307347;19;140742;-84
2023/06/28 05:00:33;;;;;;;2.15;1.38;;;;;;;;;;7306751;19;141268;-80
2023/06/28 05:06:35;;;;;;;3.03;1.40;;;;;;;;;;7308854;19;140174;-87
2023/06/28 05:12:19;;;;;;;1.90;1.33;;;;;;;;;;7309875;19;140517;-89
2023/06/28 05:14:47;;;;;;;5.13;1.60;;;;;;;;;;7304122;19;141065;-87
2023/06/28 05:17:35;;;;;;;3.00;1.40;;;;;;;;;;7308646;19;141037;-81
2023/06/28 05:20:04;;;;;;;2.40;1.45;;;;;;;;;;7306378;19;140623;-91
2023/06/28 05:22:31;;;;;;;3.50;1.60;;;;;;;;;;7304295;19;141376;-83
2023/06/28 05:24:58;;;;;;;3.75;1.50;;;;;;;;;;7306615;19;141370;-83
2023/06/28 05:27:25;;;;;;;3.08;1.48;;;;;;;;;;7306258;19;140735;-83
2023/06/28 05:29:53;;;;;;;1.83;1.25;;;;;;;;;;7305763;19;140570;-82
2023/06/28 05:32:23;;;;;;;3.33;1.50;;;;;;;;;;7305860;19;140713;-81
2023/06/28 05:34:50;;;;;;;2.72;1.65;;;;;;;;;;7304551;19;142066;-82
2023/06/28 05:37:17;;;;;;;2.38;1.38;;;;;;;;;;7304018;19;140495;-82
2023/06/28 05:39:45;;;;;;;3.85;1.55;;;;;;;;;;7304343;19;140599;-83
2023/06/28 05:42:12;;;;;;;2.83;1.60;;;;;;;;;;7304802;19;141143;-83
2023/06/28 05:44:40;;;;;;;3.10;1.40;;;;;;;;;;7303526;19;141254;-83
2023/06/28 05:47:07;;;;;;;2.58;1.30;;;;;;;;;;7304744;19;140733;-82
2023/06/28 05:49:37;;;;;;;2.55;1.48;;;;;;;;;;7303421;19;140694;-85
2023/06/28 05:52:05;;;;;;;3.25;1.70;;;;;;;;;;7303718;19;142921;-84
2023/06/28 05:54:32;;;;;;;2.90;1.58;;;;;;;;;;7305179;19;142394;-82
2023/06/28 05:56:59;;;;;;;2.00;1.40;;;;;;;;;;7304520;19;140734;-82
2023/06/28 05:59:27;;;;;;;1.90;1.58;;;;;;;;;;7303538;19;140617;-83
2023/06/28 06:01:54;;;;;;;2.00;1.48;;;;;;;;;;7303227;19;142174;-82
2023/06/28 06:04:21;;;;;;;3.22;1.67;;;;;;;;;;7302523;19;141487;-82
2023/06/28 06:06:49;;;;;;;1.73;1.50;;;;;;;;;;7303380;19;140617;-82
2023/06/28 06:09:18;;;;;;;2.45;1.60;;;;;;;;;;7302774;19;140793;-82
2023/06/28 06:11:45;;;;;;;2.38;1.60;;;;;;;;;;7303136;19;142018;-82
2023/06/28 06:14:12;;;;;;;3.05;1.40;;;;;;;;;;7302749;19;141848;-82
2023/06/28 06:16:40;;;;;;;1.52;1.40;;;;;;;;;;7302573;19;140846;-84
2023/06/28 06:19:07;;;;;;;2.22;1.45;;;;;;;;;;7302633;19;140639;-83
2023/06/28 06:21:35;;;;;;;1.75;1.30;;;;;;;;;;7304090;19;142149;-81
2023/06/28 06:24:07;;;;;;;2.90;1.60;;;;;;;;;;7303955;19;142094;-82
2023/06/28 06:29:05;;;;;;;;;;;;;;;;;;7304637;19;140752;-82
2023/06/28 06:31:32;;;;;;;2.75;1.60;;;;;;;;;;7303094;19;149915;-82
2023/06/28 06:34:01;;;;;;;3.13;1.60;;;;;;;;;;7303062;19;142676;-82
2023/06/28 06:36:28;;;;;;;2.70;1.30;;;;;;;;;;7304236;19;140488;-82
2023/06/28 06:38:57;;;;;;;2.25;1.48;;;;;;;;;;7301985;19;140480;-82
2023/06/28 06:41:24;;;;;;;3.97;1.50;;;;;;;;;;7303151;19;140739;-82
2023/06/28 06:43:52;;;;;;;2.55;1.90;;;;;;;;;;7300553;19;140723;-83
2023/06/28 06:46:20;;;;;;;2.10;1.60;;;;;;;;;;7303557;19;140544;-82
2023/06/28 06:48:47;;;;;;;2.55;1.58;;;;;;;;;;7303620;19;140628;-81
2023/06/28 06:51:15;;;;;;;2.22;1.50;;;;;;;;;;7303782;19;141298;-83
2023/06/28 06:53:42;;;;;;;2.75;1.70;;;;;;;;;;7302568;19;140785;-80
2023/06/28 06:56:10;;;;;;;3.72;1.63;;;;;;;;;;7301299;19;140586;-82
2023/06/28 06:58:37;;;;;;;2.92;1.77;;;;;;;;;;7299948;19;140639;-82
2023/06/28 07:01:05;;;;;;;2.90;1.45;;;;;;;;;;7301918;19;141215;-83
2023/06/28 07:03:33;;;;;;;2.63;1.48;;;;;;;;;;7300777;19;142856;-83
2023/06/28 07:06:00;;;;;;;1.95;1.42;;;;;;;;;;7302344;19;140671;-82
2023/06/28 07:08:28;;;;;;;2.38;1.50;;;;;;;;;;7302309;19;141484;-84
2023/06/28 07:10:57;;;;;;;2.72;1.60;;;;;;;;;;7301891;19;141644;-83
2023/06/28 07:13:24;;;;;;;2.03;1.63;;;;;;;;;;7301609;19;142748;-83
2023/06/28 07:15:51;;;;;;;2.08;1.48;;;;;;;;;;7301881;19;140535;-83
2023/06/28 07:18:19;;;;;;;3.33;1.60;;;;;;;;;;7303292;19;140452;-83
2023/06/28 07:20:47;;;;;;;1.55;1.20;;;;;;;;;;7303393;19;141860;-83
2023/06/28 07:23:14;;;;;;;1.92;1.48;;;;;;;;;;7300495;19;140806;-84
2023/06/28 07:25:42;;;;;;;1.70;1.55;;;;;;;;;;7302177;19;140693;-83
2023/06/28 07:28:09;;;;;;;2.00;1.30;;;;;;;;;;7301988;19;140472;-83
2023/06/28 07:30:59;;;;;;;2.55;1.30;;;;;;;;;;7302205;19;141397;-83
2023/06/28 07:33:26;;;;;;;2.42;1.70;;;;;;;;;;7301540;19;142663;-82
2023/06/28 07:35:53;;;;;;;2.28;1.50;;;;;;;;;;7300981;19;140785;-83
2023/06/28 07:38:24;;;;;;;2.45;1.50;;;;;;;;;;7302812;19;140589;-84
2023/06/28 07:40:53;;;;;;;2.22;1.45;;;;;;;;;;7304383;19;141811;-84
2023/06/28 07:43:20;;;;;;;2.25;1.30;;;;;;;;;;7302490;19;142402;-83
2023/06/28 07:45:47;;;;;;;3.22;1.58;;;;;;;;;;7300278;19;140783;-83
2023/06/28 07:48:18;;;;;;;3.05;1.90;;;;;;;;;;7300914;19;140536;-81
2023/06/28 07:50:49;;;;;;;4.10;2.00;;;;;;;;;;7300842;19;142110;-83
2023/06/28 07:53:18;;;;;;;6.38;2.38;;;;;;;;;;7300420;19;143138;-84
2023/06/28 07:55:45;;;;;;;2.53;1.95;;;;;;;;;;7304152;19;140430;-83
2023/06/28 07:58:12;;;;;;;6.30;2.50;;;;;;;;;;7301333;19;140547;-83
2023/06/28 08:00:40;;;;;;;5.10;2.25;;;;;;;;;;7301287;19;141220;-83
2023/06/28 08:03:23;;;;;;;4.63;1.90;;;;;;;;;;7299398;19;143664;-84
2023/06/28 08:05:50;;;;;;;3.92;1.92;;;;;;;;;;7304437;19;141243;-83
2023/06/28 08:08:17;;;;;;;3.90;2.20;;;;;;;;;;7303032;19;140705;-80
2023/06/28 08:10:46;;;;;;;4.30;2.20;;;;;;;;;;7300022;19;141484;-85
2023/06/28 08:13:14;;;;;;;3.45;1.90;;;;;;;;;;7299009;19;140884;-85
2023/06/28 08:15:42;;;;;;;5.10;2.40;;;;;;;;;;7298814;19;140830;-85
2023/06/28 08:18:12;;;;;;;3.58;2.08;;;;;;;;;;7302960;19;140789;-85
2023/06/28 08:20:40;;;;;;;7.00;2.50;;;;;;;;;;7300051;19;140348;-85
2023/06/28 08:23:09;;;;;;;5.70;2.42;;;;;;;;;;7299010;19;142105;-86
2023/06/28 08:25:36;;;;;;;6.53;2.63;;;;;;;;;;7300227;19;140567;-85
2023/06/28 08:28:11;;;;;;;6.50;2.75;;;;;;;;;;7301870;19;140517;-85
2023/06/28 08:30:38;;;;;;;8.90;2.95;;;;;;;;;;7300418;19;142001;-86
2023/06/28 08:33:06;;;;;;;7.03;2.78;;;;;;;;;;7300135;19;141793;-85
2023/06/28 08:35:33;;;;;;;5.07;2.80;;;;;;;;;;7300739;19;140518;-85
2023/06/28 08:38:01;;;;;;;7.82;3.30;;;;;;;;;;7300734;19;140606;-85
2023/06/28 08:40:29;;;;;;;9.77;3.80;;;;;;;;;;7305700;19;141249;-85
2023/06/28 08:42:57;;;;;;;10.80;3.80;;;;;;;;;;7308055;19;140761;-86
2023/06/28 08:45:25;;;;;;;7.70;3.42;;;;;;;;;;7307545;19;141210;-86
2023/06/28 08:47:54;;;;;;;11.98;4.32;;;;;;;;;;7307405;19;140541;-87
2023/06/28 08:50:22;;;;;;;8.52;3.22;;;;;;;;;;7307782;19;141939;-85
2023/06/28 08:52:50;;;;;;;8.18;3.40;;;;;;;;;;7306417;19;142249;-84
2023/06/28 08:55:21;;;;;;;7.47;3.10;;;;;;;;;;7308978;19;140569;-85
2023/06/28 08:57:48;;;;;;;8.57;3.38;;;;;;;;;;7308444;19;140504;-84
2023/06/28 09:00:16;;;;;;;10.80;3.53;;;;;;;;;;7307624;19;141230;-85
2023/06/28 09:02:45;;;;;;;9.07;3.40;;;;;;;;;;7311016;19;141895;-85
2023/06/28 09:05:14;;;;;;;8.07;3.00;;;;;;;;;;7313151;19;140356;-82
2023/06/28 09:07:43;;;;;;;7.90;2.97;;;;;;;;;;7310176;19;140564;-88
2023/06/28 09:10:15;;;;;;;6.47;3.37;;;;;;;;;;7315718;19;141714;-87
2023/06/28 09:12:44;;;;;;;6.88;3.33;;;;;;;;;;7335664;19;142144;-85
2023/06/28 09:15:12;;;;;;;8.95;3.35;;;;;;;;;;7335799;19;140040;-86
2023/06/28 09:17:40;;;;;;;8.70;3.10;;;;;;;;;;7336071;19;140431;-86
2023/06/28 09:20:16;;;;;;;8.15;3.33;;;;;;;;;;7333847;19;140519;-86
2023/06/28 09:23:00;;;;;;;7.53;3.08;;;;;;;;;;7334239;19;140968;-79
2023/06/28 09:25:30;;;;;;;6.75;3.22;;;;;;;;;;7320090;19;140698;-78
2023/06/28 09:28:00;;;;;;;5.50;2.70;;;;;;;;;;7309717;19;141676;-78
2023/06/28 09:30:29;;;;;;;4.50;2.60;;;;;;;;;;7307313;19;142738;-79
2023/06/28 09:32:56;;;;;;;6.45;3.17;;;;;;;;;;7307644;19;142047;-79
2023/06/28 09:35:27;;;;;;;7.82;3.50;;;;;;;;;;7306160;19;141860;-78
2023/06/28 09:37:58;;;;;;;7.13;3.22;;;;;;;;;;7305495;19;141774;-75
2023/06/28 09:40:26;;;;;;;6.97;3.10;;;;;;;;;;7305644;19;140648;-78
2023/06/28 09:42:53;;;;;;;5.00;2.80;;;;;;;;;;7306644;19;141996;-78
2023/06/28 09:45:32;;;;;;;5.57;2.85;;;;;;;;;;7304281;19;140858;-78
2023/06/28 09:48:02;;;;;;;6.00;2.90;;;;;;;;;;7305069;19;142450;-78
2023/06/28 09:50:43;;;;;;;5.63;3.00;;;;;;;;;;7305745;19;141211;-77
2023/06/28 09:53:15;;;;;;;8.43;3.45;;;;;;;;;;7306947;19;141856;-80
2023/06/28 09:55:44;;;;;;;7.00;3.15;;;;;;;;;;7305425;19;140628;-79
2023/06/28 09:58:17;;;;;;;6.13;3.22;;;;;;;;;;7305288;19;141147;-80
2023/06/28 10:00:47;;;;;;;6.03;3.30;;;;;;;;;;7304470;19;141696;-82
2023/06/28 10:03:17;;;;;;;7.70;3.00;;;;;;;;;;7305337;19;140593;-84
2023/06/28 10:05:45;;;;;;;7.78;3.30;;;;;;;;;;7304596;19;140554;-84
2023/06/28 10:08:28;;;;;;;7.93;4.00;;;;;;;;;;7304189;19;140884;-80
2023/06/28 10:11:26;;;;;;;7.88;3.50;;;;;;;;;;7303507;19;141771;-82
2023/06/28 10:13:56;;;;;;;6.15;3.15;;;;;;;;;;7304076;19;142611;-80
2023/06/28 10:16:30;;;;;;;7.47;3.70;;;;;;;;;;7304241;19;140689;-79
2023/06/28 10:19:01;;;;;;;7.85;3.90;;;;;;;;;;7303718;19;140720;-80
2023/06/28 10:21:39;;;;;;;7.32;3.88;;;;;;;;;;7301689;19;141938;-79
2023/06/28 10:24:07;;;;;;;7.03;3.60;;;;;;;;;;7303900;19;141423;-80
2023/06/28 10:26:36;;;;;;;8.70;4.00;;;;;;;;;;7303991;19;140652;-82
2023/06/28 10:29:04;;;;;;;6.63;3.40;;;;;;;;;;7302366;19;140594;-83
2023/06/28 10:31:31;;;;;;;8.73;4.05;;;;;;;;;;7304712;19;140977;-80
2023/06/28 10:34:07;;;;;;;9.63;3.85;;;;;;;;;;7301969;19;142364;-80
2023/06/28 10:36:34;;;;;;;8.90;3.65;;;;;;;;;;7303678;19;140861;-80
2023/06/28 10:39:03;;;;;;;7.85;3.92;;;;;;;;;;7304235;19;140551;-80
2023/06/28 10:41:30;;;;;;;9.65;4.10;;;;;;;;;;7303643;19;141837;-80
2023/06/28 10:44:03;;;;;;;9.00;3.58;;;;;;;;;;7303005;19;142534;-80
2023/06/28 10:46:44;;;;;;;10.93;4.13;;;;;;;;;;7303061;19;141061;-80
2023/06/28 10:49:15;;;;;;;9.98;3.67;;;;;;;;;;7304159;19;140695;-80
2023/06/28 10:51:46;;;;;;;8.35;3.90;;;;;;;;;;7302114;19;141192;-79
2023/06/28 10:54:21;;;;;;;9.43;3.97;;;;;;;;;;7302424;19;141280;-79
2023/06/28 10:56:50;;;;;;;5.65;3.60;;;;;;;;;;7300456;19;140848;-79
2023/06/28 10:59:21;;;;;;;8.15;3.85;;;;;;;;;;7303163;19;140644;-78
2023/06/28 11:02:11;;;;;;;8.35;3.92;;;;;;;;;;7301782;19;141234;-81
2023/06/28 11:04:52;;;;;;;6.80;3.60;;;;;;;;;;7302530;19;141811;-78
2023/06/28 11:07:23;;;;;;;7.72;3.72;;;;;;;;;;7301585;19;141593;-78
2023/06/28 11:10:16;;;;;;;7.53;3.60;;;;;;;;;;7304212;19;140749;-78
2023/06/28 11:12:48;;;;;;;12.27;5.32;;;;;;;;;;7302529;19;140898;-78
2023/06/28 11:15:26;;;;;;;9.25;4.22;;;;;;;;;;7302724;19;141852;-78
2023/06/28 11:18:07;;;;;;;9.30;4.38;;;;;;;;;;7303871;19;140944;-78
2023/06/28 11:20:57;;;;;;;10.02;4.43;;;;;;;;;;7302809;19;140800;-79
2023/06/28 11:23:38;;;;;;;7.40;3.90;;;;;;;;;;7301996;19;142809;-80
2023/06/28 11:26:08;;;;;;;8.20;3.97;;;;;;;;;;7301173;19;141278;-81
2023/06/28 11:28:36;;;;;;;7.90;4.10;;;;;;;;;;7303417;19;140686;-83
2023/06/28 11:31:22;;;;;;;7.90;4.20;;;;;;;;;;7301370;19;140493;-79
2023/06/28 11:33:54;;;;;;;5.80;3.90;;;;;;;;;;7303076;19;141633;-79
2023/06/28 11:36:25;;;;;;;7.88;3.92;;;;;;;;;;7300178;19;142716;-80
2023/06/28 11:38:52;;;;;;;8.95;3.67;;;;;;;;;;7301821;19;142054;-79
2023/06/28 11:41:21;;;;;;;9.07;3.88;;;;;;;;;;7301714;19;140861;-78
2023/06/28 11:43:50;;;;;;;6.93;3.67;;;;;;;;;;7302487;19;140686;-79
2023/06/28 11:46:20;;;;;;;7.05;3.88;;;;;;;;;;7300521;19;141917;-78
2023/06/28 11:49:15;;;;;;;9.93;3.65;;;;;;;;;;7301625;19;140663;-83
2023/06/28 11:51:44;;;;;;;7.53;3.55;;;;;;;;;;7302385;19;140695;-80
2023/06/28 11:54:15;;;;;;;6.78;3.55;;;;;;;;;;7302608;19;141882;-80
2023/06/28 11:56:52;;;;;;;6.78;3.65;;;;;;;;;;7302250;19;142872;-79
2023/06/28 11:59:27;;;;;;;6.38;3.45;;;;;;;;;;7302345;19;140553;-79
2023/06/28 12:02:34;;;;;;;6.82;3.30;;;;;;;;;;7301275;19;140585;-76
2023/06/28 12:05:10;;;;;;;8.07;3.38;;;;;;;;;;7298990;19;140844;-78
2023/06/28 12:07:37;;;;;;;6.57;3.00;;;;;;;;;;7300725;19;142390;-78
2023/06/28 12:10:06;;;;;;;7.88;3.28;;;;;;;;;;7302312;19;141166;-77
2023/06/28 12:12:35;;;;;;;6.38;3.30;;;;;;;;;;7301004;19;140767;-77
2023/06/28 12:15:04;;;;;;;5.40;2.72;;;;;;;;;;7305365;19;140909;-76
2023/06/28 12:18:11;;;;;;;6.80;3.45;;;;;;;;;;7306918;19;141837;-79
2023/06/28 12:20:38;;;;;;;5.13;2.92;;;;;;;;;;7307868;19;140971;-79
2023/06/28 12:23:20;;;;;;;7.78;3.38;;;;;;;;;;7308751;19;140316;-84
2023/06/28 12:26:17;;;;;;;7.28;3.20;;;;;;;;;;7310827;19;140524;-81
2023/06/28 12:32:23;;;;;;;5.93;3.10;;;;;;;;;;7308133;19;140537;-80
2023/06/28 12:34:51;;;;;;;5.57;3.28;;;;;;;;;;7306806;19;140793;-80
2023/06/28 12:37:20;;;;;;;6.30;3.10;;;;;;;;;;7306505;19;140794;-81
2023/06/28 12:39:48;;;;;;;5.18;3.17;;;;;;;;;;7307419;19;141890;-82
2023/06/28 12:42:19;;;;;;;6.78;3.17;;;;;;;;;;7308880;19;140534;-80
2023/06/28 12:44:55;;;;;;;5.20;2.97;;;;;;;;;;7306745;19;140660;-82
2023/06/28 12:47:34;;;;;;;9.18;3.30;;;;;;;;;;7305779;19;141267;-82
2023/06/28 12:50:04;;;;;;;5.10;2.80;;;;;;;;;;7307369;19;140666;-82
2023/06/28 12:52:31;;;;;;;5.72;2.85;;;;;;;;;;7306764;19;140752;-81
2023/06/28 12:54:59;;;;;;;5.15;3.05;;;;;;;;;;7307561;19;140979;-82
2023/06/28 12:57:28;;;;;;;7.38;3.22;;;;;;;;;;7306986;19;141253;-80
2023/06/28 12:59:56;;;;;;;5.70;3.13;;;;;;;;;;7305892;19;141299;-82
2023/06/28 13:02:23;;;;;;;4.43;2.83;;;;;;;;;;7306147;19;140757;-80
2023/06/28 13:09:04;;;;;;;7.07;3.25;;;;;;;;;;7304102;19;140993;-81
2023/06/28 13:11:31;;;;;;;4.65;2.90;;;;;;;;;;7306709;19;141589;-81
2023/06/28 13:13:59;;;;;;;6.45;3.38;;;;;;;;;;7304095;19;141078;-81
2023/06/28 13:16:27;;;;;;;4.88;2.83;;;;;;;;;;7306196;19;140681;-81
2023/06/28 13:18:54;;;;;;;4.78;2.78;;;;;;;;;;7305424;19;141034;-80
2023/06/28 13:21:23;;;;;;;5.82;2.83;;;;;;;;;;7304191;19;145004;-81
2023/06/28 13:23:50;;;;;;;3.25;2.20;;;;;;;;;;7304731;19;140924;-83
2023/06/28 13:26:18;;;;;;;4.90;2.90;;;;;;;;;;7306857;19;140758;-81
2023/06/28 13:28:48;;;;;;;6.10;2.83;;;;;;;;;;7306579;19;141876;-82
2023/06/28 13:31:22;;;;;;;6.47;3.20;;;;;;;;;;7304477;19;141318;-80
2023/06/28 13:33:49;;;;;;;5.03;2.20;;;;;;;;;;7305381;19;140418;-80
2023/06/28 13:36:19;;;;;;;4.45;3.08;;;;;;;;;;7309511;19;140416;-80
2023/06/28 13:42:15;;;;;;;5.85;3.28;;;;;;;;;;7342173;19;140500;-78
2023/06/28 13:44:42;;;;;;;8.77;3.90;;;;;;;;;;7337502;19;140748;-76
2023/06/28 13:47:09;;;;;;;7.65;4.72;;;;;;;;;;7336927;19;140636;-79
2023/06/28 13:49:40;;;;;;;;;;;;;;;;;;7336251;19;141465;-76
2023/06/28 13:52:07;;;;;;;;;;;;;;;;;;7337519;19;141663;-76
2023/06/28 13:54:35;;;;;;;;;;;;;;;;;;7338894;19;140804;-76
2023/06/28 13:57:03;;;;;;;;;;;;;;;;;;7338839;19;147900;-78
2023/06/28 13:59:30;;;;;;;;;;;;;;;;;;7336619;19;150627;-75
2023/06/28 14:01:59;;;;;;;;;;;;;;;;;;7338556;19;140581;-76
2023/06/28 14:04:26;;;;;;;;;;;;;;;;;;7338212;19;142103;-76
2023/06/28 14:06:56;;;;;;;;;;;;;;;;;;7338807;19;140941;-76
2023/06/28 14:09:24;;;;;;;;;;;;;;;;;;7338040;19;140859;-77
2023/06/28 14:11:51;;;;;;;;;;;;;;;;;;7337613;19;140525;-78
2023/06/28 14:14:18;;;;;;;;;;;;;;;;;;7340019;19;140676;-77
2023/06/28 14:16:45;;;;;;;;;;;;;;;;;;7337395;19;150970;-76
2023/06/28 14:19:12;;;;;;;;;;;;;;;;;;7337543;19;149987;-76
2023/06/28 14:21:39;;;;;;;;;;;;;;;;;;7337033;19;141564;-78
2023/06/28 14:24:10;;;;;;;;;;;;;;;;;;7337761;19;144082;-78
2023/06/28 14:26:39;;;;;;;;;;;;;;;;;;7338122;19;140659;-78
2023/06/28 14:29:07;;;;;;;;;;;;;;;;;;7338193;19;142115;-77
2023/06/28 14:31:34;;;;;;;;;;;;;;;;;;7336604;19;145511;-76
2023/06/28 14:34:01;;;;;;;;;;;;;;;;;;7335347;19;144256;-78
2023/06/28 14:36:37;;;;;;;;;;;;;;;;;;7334364;19;140553;-78
2023/06/28 14:39:04;;;;;;;;;;;;;;;;;;7335406;19;143049;-77
2023/06/28 14:41:31;;;;;;;;;;;;;;;;;;7335427;19;142861;-77
2023/06/28 14:43:58;;;;;;;;;;;;;;;;;;7336549;19;144789;-77
2023/06/28 14:46:25;;;;;;;;;;;;;;;;;;7336284;19;151083;-77
2023/06/28 14:48:52;;;;;;;;;;;;;;;;;;7337184;19;152914;-77
2023/06/28 14:51:19;;;;;;;;;;;;;;;;;;7316975;19;140583;-76
2023/06/28 14:53:46;;;;;;;;;;;;;;;;;;7307055;19;140687;-77
2023/06/28 14:56:17;;;;;;;;;;;;;;;;;;7307157;19;144261;-77
2023/06/28 14:58:44;;;;;;;;;;;;;;;;;;7306556;19;141662;-77
2023/06/28 15:01:11;;;;;;;;;;;;;;;;;;7306645;19;140775;-77
2023/06/28 15:03:38;;;;;;;;;;;;;;;;;;7308284;19;141100;-77
2023/06/28 15:06:06;;;;;;;;;;;;;;;;;;7307263;19;152466;-77
2023/06/28 15:08:33;;;;;;;;;;;;;;;;;;7306451;19;149340;-79
2023/06/28 15:11:10;;;;;;;;;;;;;;;;;;7307411;19;140543;-78
2023/06/28 15:13:39;;;;;;;;;;;;;;;;;;7306337;19;140563;-77
2023/06/28 15:16:06;;;;;;;;;;;;;;;;;;7307515;19;140795;-78